Time;durP1;ratioP1;P1;durP2;ratioP2;P2;SDS_P1;SDS_P2;PMS_P1;PMS_P2;Temp;Humidity;BMP_temperature;BMP_pressure;BME280_temperature;BME280_humidity;BME280_pressure;Samples;Min_cycle;Max_cycle;Signal;HPM_P1;HPM_P2
2022/01/13 00:00:31;;;;;;;23.15;9.73;;;7.90;99.90;;;;;;4973171;22;114810;-60
2022/01/13 00:02:57;;;;;;;19.88;10.32;;;7.80;99.90;;;;;;4945513;28;112640;-62
2022/01/13 00:05:28;;;;;;;21.27;9.82;;;7.80;99.90;;;;;;4945211;28;112485;-62
2022/01/13 00:07:55;;;;;;;22.08;10.40;;;7.70;99.90;;;;;;4927943;28;112521;-62
2022/01/13 00:10:22;;;;;;;26.90;12.38;;;7.70;99.90;;;;;;4923426;28;115399;-59
2022/01/13 00:12:57;;;;;;;23.73;12.15;;;7.70;99.90;;;;;;4924233;28;112636;-59
2022/01/13 00:15:40;;;;;;;34.55;14.02;;;7.60;99.90;;;;;;4923660;28;112713;-62
2022/01/13 00:18:16;;;;;;;43.03;17.90;;;7.60;99.90;;;;;;4927144;28;112344;-61
2022/01/13 00:26:15;;;;;;;23.90;11.40;;;7.50;99.90;;;;;;4945459;28;112445;-59
2022/01/13 00:28:44;;;;;;;22.67;12.10;;;7.50;99.90;;;;;;4943875;28;112452;-62
2022/01/13 00:31:10;;;;;;;30.13;12.93;;;7.50;99.90;;;;;;4943703;28;113564;-61
2022/01/13 00:33:36;;;;;;;27.17;12.68;;;7.40;99.90;;;;;;4954157;22;113510;-63
2022/01/13 00:36:04;;;;;;;23.55;11.98;;;7.40;99.90;;;;;;4937610;28;112557;-58
2022/01/13 00:38:31;;;;;;;32.95;13.35;;;7.40;99.90;;;;;;4962538;28;112560;-57
2022/01/13 00:40:57;;;;;;;28.00;12.15;;;7.40;99.90;;;;;;4951957;28;114425;-58
2022/01/13 00:43:23;;;;;;;21.02;10.57;;;7.30;99.90;;;;;;4944191;28;113195;-59
2022/01/13 00:45:49;;;;;;;29.00;14.77;;;7.20;99.90;;;;;;4927099;28;112559;-58
2022/01/13 00:48:16;;;;;;;29.65;11.07;;;7.20;99.90;;;;;;4944606;28;112654;-57
2022/01/13 00:50:42;;;;;;;21.65;8.93;;;7.10;99.90;;;;;;4944191;28;112895;-58
2022/01/13 00:53:08;;;;;;;25.95;10.30;;;7.10;99.90;;;;;;4956349;28;112689;-59
2022/01/13 00:58:33;;;;;;;21.58;12.52;;;7.00;99.90;;;;;;4906762;28;112804;-58
2022/01/13 01:01:00;;;;;;;25.08;11.13;;;6.90;99.90;;;;;;4926121;28;113107;-57
2022/01/13 01:03:26;;;;;;;23.30;11.05;;;6.90;99.90;;;;;;4940723;28;112954;-58
2022/01/13 01:05:53;;;;;;;23.48;10.40;;;6.90;99.90;;;;;;4943648;28;112665;-58
2022/01/13 01:08:20;;;;;;;28.73;11.15;;;6.90;99.90;;;;;;4942735;28;112672;-58
2022/01/13 01:10:48;;;;;;;22.65;10.85;;;6.90;99.90;;;;;;4944404;28;113018;-58
2022/01/13 01:13:20;;;;;;;25.75;12.20;;;6.90;99.90;;;;;;4942061;28;112646;-59
2022/01/13 01:15:52;;;;;;;29.75;12.77;;;6.80;99.90;;;;;;4943263;28;112445;-58
2022/01/13 01:23:37;;;;;;;27.65;12.98;;;6.70;99.90;;;;;;4923950;28;113215;-57
2022/01/13 01:26:25;;;;;;;19.48;11.50;;;6.70;99.90;;;;;;4924376;28;112537;-58
2022/01/13 01:29:08;;;;;;;31.15;11.88;;;6.80;99.90;;;;;;4924225;28;113800;-59
2022/01/13 01:31:36;;;;;;;17.67;10.52;;;6.80;99.90;;;;;;4925869;28;113841;-58
2022/01/13 01:34:29;;;;;;;29.45;13.52;;;6.70;99.90;;;;;;4943233;28;113827;-58
2022/01/13 01:36:56;;;;;;;24.20;11.55;;;6.70;99.90;;;;;;4942822;28;112869;-58
2022/01/13 01:39:23;;;;;;;22.70;13.07;;;6.70;99.90;;;;;;4942625;28;112455;-57
2022/01/13 01:41:52;;;;;;;24.00;13.60;;;6.70;99.90;;;;;;4925387;28;115167;-58
2022/01/13 01:44:35;;;;;;;30.05;12.75;;;6.70;99.90;;;;;;4942536;28;114170;-58
2022/01/13 01:47:04;;;;;;;22.42;12.27;;;6.70;99.90;;;;;;4942929;28;112425;-56
2022/01/13 01:49:38;;;;;;;24.33;12.75;;;6.70;99.90;;;;;;4943327;28;112408;-57
2022/01/13 01:52:05;;;;;;;31.00;13.48;;;6.70;99.90;;;;;;4942994;28;114949;-58
2022/01/13 01:54:31;;;;;;;25.42;14.25;;;6.60;99.90;;;;;;4940535;28;113515;-57
2022/01/13 01:56:58;;;;;;;27.38;13.63;;;6.60;99.90;;;;;;4943467;28;112285;-58
2022/01/13 01:59:28;;;;;;;20.05;11.93;;;6.60;99.90;;;;;;4942375;28;112528;-57
2022/01/13 02:01:54;;;;;;;24.48;11.43;;;6.60;99.90;;;;;;4942912;28;114215;-57
2022/01/13 02:04:22;;;;;;;19.67;9.77;;;6.60;99.90;;;;;;4940690;28;113419;-57
2022/01/13 02:06:48;;;;;;;21.17;9.77;;;6.60;99.90;;;;;;4944140;28;112768;-62
2022/01/13 02:09:17;;;;;;;22.75;9.30;;;6.60;99.90;;;;;;4942182;28;112529;-57
2022/01/13 02:11:51;;;;;;;20.45;10.75;;;6.60;99.90;;;;;;4926610;28;113001;-57
2022/01/13 02:16:56;;;;;;;25.35;11.63;;;6.60;99.90;;;;;;4943109;28;112404;-57
2022/01/13 02:19:23;;;;;;;;;;;6.60;99.90;;;;;;4924416;28;112748;-59
2022/01/13 02:21:49;;;;;;;28.48;12.75;;;6.60;99.90;;;;;;4943636;28;114234;-58
2022/01/13 02:24:15;;;;;;;23.52;12.40;;;6.60;99.90;;;;;;4925004;28;112650;-58
2022/01/13 02:26:40;;;;;;;25.60;11.35;;;6.60;99.90;;;;;;4946483;28;112369;-58
2022/01/13 02:29:06;;;;;;;20.30;9.63;;;6.60;99.90;;;;;;4927825;28;112828;-58
2022/01/13 02:31:32;;;;;;;24.63;9.57;;;6.60;99.90;;;;;;4945821;28;113455;-57
2022/01/13 02:33:58;;;;;;;22.75;9.98;;;6.50;99.90;;;;;;4928078;28;113632;-57
2022/01/13 02:36:24;;;;;;;23.92;9.95;;;6.60;99.90;;;;;;4946479;28;112517;-57
2022/01/13 02:38:52;;;;;;;24.90;9.18;;;6.50;99.90;;;;;;4946194;28;113113;-58
2022/01/13 02:41:17;;;;;;;22.25;9.90;;;6.50;99.90;;;;;;4946624;28;113323;-58
2022/01/13 02:43:47;;;;;;;23.58;8.70;;;6.50;99.90;;;;;;4945114;28;113611;-57
2022/01/13 02:46:53;;;;;;;12.35;8.32;;;6.50;99.90;;;;;;4912732;28;112721;-57
2022/01/13 02:49:20;;;;;;;21.48;9.63;;;6.50;99.90;;;;;;4945861;28;112582;-58
2022/01/13 02:51:48;;;;;;;17.13;7.80;;;6.50;99.90;;;;;;4946393;28;114639;-58
2022/01/13 02:54:14;;;;;;;16.13;8.05;;;6.40;99.90;;;;;;4944952;28;114358;-56
2022/01/13 02:56:42;;;;;;;24.45;8.27;;;6.40;99.90;;;;;;4946983;28;113213;-57
2022/01/13 02:59:08;;;;;;;21.95;8.50;;;6.40;99.90;;;;;;4946428;28;112551;-57
2022/01/13 03:01:34;;;;;;;11.52;6.55;;;6.40;99.90;;;;;;4928031;28;113597;-61
2022/01/13 03:04:04;;;;;;;16.83;7.90;;;6.40;99.90;;;;;;4945175;28;112508;-57
2022/01/13 03:06:35;;;;;;;14.32;7.07;;;6.40;99.90;;;;;;4946739;28;112409;-57
2022/01/13 03:09:04;;;;;;;14.55;7.00;;;6.40;99.90;;;;;;4945556;28;112497;-57
2022/01/13 03:11:34;;;;;;;17.48;6.80;;;6.40;99.90;;;;;;4945790;28;113166;-57
2022/01/13 03:14:00;;;;;;;18.88;7.43;;;6.40;99.90;;;;;;4944408;28;115049;-57
2022/01/13 03:16:28;;;;;;;18.75;7.35;;;6.40;99.90;;;;;;4946420;28;112445;-56
2022/01/13 03:18:54;;;;;;;21.52;7.15;;;6.30;99.90;;;;;;4945197;28;112609;-58
2022/01/13 03:21:20;;;;;;;18.75;7.47;;;6.30;99.90;;;;;;4946407;28;113515;-57
2022/01/13 03:23:46;;;;;;;19.77;7.85;;;6.30;99.90;;;;;;4927136;28;112890;-58
2022/01/13 03:26:12;;;;;;;27.25;8.40;;;6.30;99.90;;;;;;4946534;28;112644;-58
2022/01/13 03:28:39;;;;;;;21.10;7.25;;;6.20;99.90;;;;;;4927856;28;112635;-58
2022/01/13 03:31:07;;;;;;;18.08;6.55;;;6.20;99.90;;;;;;4944039;28;117111;-57
2022/01/13 03:33:34;;;;;;;16.70;6.93;;;6.20;99.90;;;;;;4943168;28;115158;-56
2022/01/13 03:36:04;;;;;;;21.95;7.53;;;6.20;99.90;;;;;;4944244;28;112421;-56
2022/01/13 03:38:30;;;;;;;25.08;7.55;;;6.10;99.90;;;;;;4945538;28;112999;-57
2022/01/13 03:40:56;;;;;;;21.90;8.45;;;6.10;99.90;;;;;;4945187;28;114708;-57
2022/01/13 03:43:22;;;;;;;27.42;9.63;;;6.10;99.90;;;;;;4945045;28;112559;-59
2022/01/13 03:45:48;;;;;;;28.58;10.57;;;6.10;99.90;;;;;;4945697;28;112513;-59
2022/01/13 03:48:14;;;;;;;35.60;11.13;;;6.10;99.90;;;;;;4928483;28;112725;-59
2022/01/13 03:50:41;;;;;;;33.85;10.18;;;6.10;99.90;;;;;;4943706;28;114234;-59
2022/01/13 03:53:28;;;;;;;38.33;12.20;;;6.00;99.90;;;;;;4943988;28;113651;-58
2022/01/13 03:56:05;;;;;;;28.88;10.98;;;6.00;99.90;;;;;;4925424;28;112530;-59
2022/01/13 03:59:03;;;;;;;34.55;12.23;;;6.00;99.90;;;;;;4907918;28;112480;-59
2022/01/13 04:02:00;;;;;;;28.98;11.38;;;5.90;99.90;;;;;;4889376;28;114136;-58
2022/01/13 04:04:41;;;;;;;32.75;11.18;;;5.90;99.90;;;;;;4911587;28;112975;-58
2022/01/13 04:07:11;;;;;;;27.65;9.73;;;5.80;99.90;;;;;;4944649;28;112527;-58
2022/01/13 04:09:43;;;;;;;;;;;5.80;99.90;;;;;;4945977;28;112414;-58
2022/01/13 04:12:11;;;;;;;35.78;9.32;;;5.80;99.90;;;;;;4945689;28;113125;-58
2022/01/13 04:17:08;;;;;;;31.55;8.98;;;5.70;99.90;;;;;;4946251;28;112468;-58
2022/01/13 04:19:34;;;;;;;27.27;9.68;;;5.70;99.90;;;;;;4945321;28;112697;-57
2022/01/13 04:22:02;;;;;;;27.05;8.88;;;5.70;99.90;;;;;;4944978;28;112955;-57
2022/01/13 04:24:28;;;;;;;26.40;8.70;;;5.80;99.90;;;;;;4943543;28;112700;-62
2022/01/13 04:26:55;;;;;;;19.75;8.35;;;5.80;99.90;;;;;;4944939;28;112578;-57
2022/01/13 04:29:30;;;;;;;25.77;7.88;;;5.80;99.90;;;;;;4927895;28;113459;-58
2022/01/13 04:31:56;;;;;;;18.35;7.22;;;5.80;99.90;;;;;;4944443;28;114361;-57
2022/01/13 04:34:21;;;;;;;23.90;8.18;;;5.80;99.90;;;;;;4926127;28;113563;-57
2022/01/13 04:36:48;;;;;;;25.27;8.80;;;5.90;99.90;;;;;;4944487;28;112394;-57
2022/01/13 04:39:16;;;;;;;18.17;6.32;;;5.90;99.90;;;;;;4944778;28;112358;-58
2022/01/13 04:41:45;;;;;;;21.70;6.75;;;6.00;99.90;;;;;;4943933;28;114448;-57
2022/01/13 04:44:22;;;;;;;20.42;7.90;;;6.00;99.90;;;;;;4943099;28;113565;-58
2022/01/13 04:46:51;;;;;;;22.98;7.05;;;6.10;99.90;;;;;;4925454;28;112502;-57
2022/01/13 04:49:18;;;;;;;22.75;7.13;;;6.10;99.90;;;;;;4924822;28;112519;-60
2022/01/13 04:51:46;;;;;;;19.60;8.10;;;6.20;99.90;;;;;;4944466;28;114342;-57
2022/01/13 04:54:12;;;;;;;16.27;7.45;;;6.20;99.90;;;;;;4943823;28;112579;-57
2022/01/13 04:56:44;;;;;;;21.92;9.68;;;6.20;99.90;;;;;;4944595;28;112959;-57
2022/01/13 04:59:11;;;;;;;21.45;9.80;;;6.30;99.90;;;;;;4928287;28;112421;-58
2022/01/13 05:01:38;;;;;;;21.17;11.15;;;6.30;99.90;;;;;;4943419;28;113252;-58
2022/01/13 05:04:05;;;;;;;16.38;8.48;;;6.40;99.90;;;;;;4943194;28;112603;-57
2022/01/13 05:06:32;;;;;;;17.10;6.70;;;6.40;99.90;;;;;;4944463;28;113000;-57
2022/01/13 05:08:57;;;;;;;14.80;7.22;;;6.50;99.90;;;;;;4944890;28;112653;-58
2022/01/13 05:11:25;;;;;;;20.30;7.03;;;6.50;99.90;;;;;;4942918;28;114518;-57
2022/01/13 05:13:51;;;;;;;19.38;7.82;;;6.60;99.90;;;;;;4942633;28;112908;-58
2022/01/13 05:16:23;;;;;;;20.17;7.30;;;6.70;99.90;;;;;;4925599;28;112524;-57
2022/01/13 05:21:44;;;;;;;13.80;8.20;;;6.80;99.90;;;;;;4943028;28;112914;-58
2022/01/13 05:24:04;;;;;;;20.88;9.02;;;6.90;99.90;;;;;;4943291;28;113482;-58
2022/01/13 05:26:29;;;;;;;17.85;9.75;;;7.00;99.90;;;;;;4943659;28;112311;-58
2022/01/13 05:28:55;;;;;;;23.58;10.27;;;7.00;99.90;;;;;;4944835;28;112504;-58
2022/01/13 05:31:21;;;;;;;22.80;9.40;;;7.10;99.90;;;;;;4942834;28;113502;-58
2022/01/13 05:33:47;;;;;;;24.05;11.63;;;7.10;99.90;;;;;;4926122;28;113283;-58
2022/01/13 05:36:13;;;;;;;23.40;9.63;;;7.20;99.90;;;;;;4925692;28;112679;-58
2022/01/13 05:38:42;;;;;;;16.38;10.15;;;7.30;99.90;;;;;;4924808;28;112575;-58
2022/01/13 05:41:08;;;;;;;22.48;9.35;;;7.30;99.90;;;;;;4943561;28;113236;-57
2022/01/13 05:43:34;;;;;;;20.40;8.00;;;7.40;99.90;;;;;;4926036;28;112682;-58
2022/01/13 05:46:00;;;;;;;13.68;7.32;;;7.40;99.90;;;;;;4925377;28;113480;-57
2022/01/13 05:48:26;;;;;;;24.35;7.78;;;7.50;99.90;;;;;;4926135;28;112636;-56
2022/01/13 05:50:52;;;;;;;30.48;7.68;;;7.50;99.90;;;;;;4925456;28;113468;-57
2022/01/13 05:53:17;;;;;;;13.40;6.70;;;7.70;99.90;;;;;;4943759;28;113376;-58
2022/01/13 05:55:43;;;;;;;18.58;5.32;;;7.70;99.90;;;;;;4943771;28;112505;-57
2022/01/13 05:58:09;;;;;;;11.73;5.85;;;7.80;99.90;;;;;;4944897;28;112688;-58
2022/01/13 06:00:36;;;;;;;16.92;5.55;;;8.00;99.90;;;;;;4944816;28;113428;-57
2022/01/13 06:03:02;;;;;;;14.35;5.82;;;8.10;99.90;;;;;;4945036;28;112480;-57
2022/01/13 06:05:28;;;;;;;12.30;5.35;;;8.20;99.90;;;;;;4946803;28;112405;-57
2022/01/13 06:07:54;;;;;;;12.27;4.28;;;8.30;99.90;;;;;;4947185;28;112699;-57
2022/01/13 06:10:20;;;;;;;17.38;4.88;;;8.30;99.90;;;;;;4946018;28;114274;-58
2022/01/13 06:12:47;;;;;;;9.82;4.93;;;8.40;99.90;;;;;;4946028;28;113840;-58
2022/01/13 06:15:15;;;;;;;22.33;5.03;;;8.50;99.90;;;;;;4946477;28;112488;-57
2022/01/13 06:17:42;;;;;;;11.70;4.97;;;8.60;99.90;;;;;;4946905;28;112516;-59
2022/01/13 06:20:10;;;;;;;14.75;5.13;;;8.70;99.90;;;;;;4945922;28;112942;-57
2022/01/13 06:22:38;;;;;;;16.45;5.63;;;8.70;99.90;;;;;;4946319;28;112660;-57
2022/01/13 06:25:06;;;;;;;22.13;6.10;;;8.70;99.90;;;;;;4929733;28;112720;-58
2022/01/13 06:27:33;;;;;;;12.48;5.00;;;8.80;99.90;;;;;;4964040;22;113976;-60
2022/01/13 06:29:59;;;;;;;18.48;6.45;;;8.80;99.90;;;;;;4964261;28;114579;-63
2022/01/13 06:32:25;;;;;;;17.63;5.93;;;8.90;99.90;;;;;;4964291;28;112584;-65
2022/01/13 06:34:52;;;;;;;21.85;8.13;;;9.00;99.90;;;;;;4948430;28;112646;-63
2022/01/13 06:37:19;;;;;;;20.00;7.93;;;9.00;99.90;;;;;;4948230;28;112505;-63
2022/01/13 06:39:45;;;;;;;21.25;7.75;;;8.90;99.90;;;;;;4964026;28;113501;-62
2022/01/13 06:42:11;;;;;;;19.60;8.70;;;8.90;99.90;;;;;;4966089;28;112629;-62
2022/01/13 06:44:37;;;;;;;16.63;8.88;;;8.90;99.90;;;;;;4965258;28;112604;-60
2022/01/13 06:47:04;;;;;;;20.95;8.88;;;8.80;99.90;;;;;;4966049;28;112490;-60
2022/01/13 06:49:30;;;;;;;29.00;10.35;;;8.70;99.90;;;;;;4964533;28;113020;-60
2022/01/13 06:51:57;;;;;;;18.70;10.05;;;8.50;99.90;;;;;;4964505;28;112506;-62
2022/01/13 06:54:23;;;;;;;32.70;12.88;;;8.30;99.90;;;;;;4964319;28;112528;-61
2022/01/13 06:56:50;;;;;;;27.77;10.68;;;8.00;99.90;;;;;;4969173;22;115113;-57
2022/01/13 06:59:16;;;;;;;27.55;11.70;;;8.00;99.90;;;;;;4943974;28;114168;-58
2022/01/13 07:01:42;;;;;;;22.08;12.00;;;7.80;99.90;;;;;;4943652;28;113701;-58
2022/01/13 07:04:09;;;;;;;23.25;12.07;;;7.60;99.90;;;;;;4983308;22;116541;-60
2022/01/13 07:06:36;;;;;;;23.88;11.43;;;7.40;99.90;;;;;;4950116;28;113278;-61
2022/01/13 07:09:06;;;;;;;24.23;11.95;;;7.30;99.90;;;;;;4983649;28;113364;-61
2022/01/13 07:11:33;;;;;;;25.00;12.15;;;7.20;99.90;;;;;;4981710;28;112434;-61
2022/01/13 07:13:59;;;;;;;25.27;12.70;;;7.10;99.90;;;;;;4990333;22;113699;-59
2022/01/13 07:16:25;;;;;;;30.23;12.40;;;6.90;99.90;;;;;;4984533;28;112542;-59
2022/01/13 07:18:51;;;;;;;28.27;14.15;;;6.80;99.90;;;;;;4965030;28;114007;-59
2022/01/13 07:21:18;;;;;;;26.63;12.93;;;6.80;99.90;;;;;;4975876;28;112862;-59
2022/01/13 07:23:44;;;;;;;26.38;14.65;;;6.70;99.90;;;;;;4984059;28;112657;-61
2022/01/13 07:26:10;;;;;;;29.42;13.07;;;6.70;99.90;;;;;;4984797;28;112777;-58
2022/01/13 07:28:36;;;;;;;22.35;12.75;;;6.60;99.90;;;;;;4981457;28;113164;-58
2022/01/13 07:31:02;;;;;;;28.20;12.80;;;6.60;99.90;;;;;;4983860;28;112782;-59
2022/01/13 07:33:28;;;;;;;21.77;12.55;;;6.60;99.90;;;;;;4971321;28;112363;-60
2022/01/13 07:35:54;;;;;;;25.90;12.90;;;6.50;99.90;;;;;;4967259;28;112493;-61
2022/01/13 07:38:20;;;;;;;23.42;12.85;;;6.50;99.90;;;;;;4972406;28;112995;-57
2022/01/13 07:40:47;;;;;;;26.05;12.65;;;6.40;99.90;;;;;;4945320;28;114926;-59
2022/01/13 07:43:13;;;;;;;36.83;14.52;;;6.40;99.90;;;;;;4945490;28;112459;-59
2022/01/13 07:45:38;;;;;;;32.28;15.05;;;6.30;99.90;;;;;;4964570;28;112751;-59
2022/01/13 07:48:05;;;;;;;29.30;14.57;;;6.30;99.90;;;;;;4978862;28;114128;-60
2022/01/13 07:50:32;;;;;;;25.70;15.13;;;6.20;99.90;;;;;;4982993;28;112839;-60
2022/01/13 07:53:00;;;;;;;34.00;15.43;;;6.10;99.90;;;;;;4950572;28;112747;-60
2022/01/13 07:55:27;;;;;;;28.45;15.30;;;6.00;99.90;;;;;;4962358;28;112840;-59
2022/01/13 07:57:52;;;;;;;28.25;16.25;;;6.00;99.90;;;;;;4978536;28;113430;-60
2022/01/13 08:00:18;;;;;;;31.55;16.77;;;6.00;99.90;;;;;;4948901;28;112627;-57
2022/01/13 08:02:44;;;;;;;29.10;15.30;;;5.90;99.90;;;;;;4921892;23;112831;-61
2022/01/13 08:05:10;;;;;;;34.00;15.60;;;6.00;99.90;;;;;;4961611;28;112638;-61
2022/01/13 08:07:37;;;;;;;35.47;16.73;;;5.90;99.90;;;;;;4961266;28;115226;-59
2022/01/13 08:10:03;;;;;;;33.05;17.27;;;5.90;99.90;;;;;;5005259;22;112682;-71
2022/01/13 08:12:30;;;;;;;30.30;16.65;;;5.90;99.90;;;;;;5000824;28;112503;-65
2022/01/13 08:14:56;;;;;;;37.67;17.23;;;5.80;99.90;;;;;;4951884;28;112602;-68
2022/01/13 08:20:08;;;;;;;38.85;18.08;;;5.90;99.90;;;;;;4973823;28;114788;-65
2022/01/13 08:22:34;;;;;;;46.90;20.05;;;6.00;99.90;;;;;;4999639;28;112334;-65
2022/01/13 08:25:00;;;;;;;37.58;18.40;;;6.00;99.90;;;;;;4970385;28;112632;-65
2022/01/13 08:27:26;;;;;;;35.13;16.77;;;6.10;99.90;;;;;;4995121;28;112840;-64
2022/01/13 08:29:52;;;;;;;38.15;16.88;;;6.10;99.90;;;;;;4991044;22;114033;-64
2022/01/13 08:32:18;;;;;;;36.97;16.58;;;6.20;99.90;;;;;;4988358;28;114557;-67
2022/01/13 08:34:45;;;;;;;33.40;16.60;;;6.20;99.90;;;;;;4982789;28;114822;-65
2022/01/13 08:37:11;;;;;;;28.95;15.07;;;6.30;99.90;;;;;;4982277;28;115012;-65
2022/01/13 08:39:43;;;;;;;26.95;14.45;;;6.40;99.90;;;;;;4968978;28;113766;-66
2022/01/13 08:42:12;;;;;;;27.35;13.38;;;6.40;99.90;;;;;;4980512;28;112369;-63
2022/01/13 08:44:39;;;;;;;31.20;15.03;;;6.40;99.90;;;;;;4981764;28;112717;-64
2022/01/13 08:47:05;;;;;;;28.27;13.75;;;6.40;99.90;;;;;;4992717;28;113579;-66
2022/01/13 08:49:31;;;;;;;35.95;15.15;;;6.40;99.90;;;;;;4973120;28;117173;-66
2022/01/13 08:51:58;;;;;;;28.40;13.65;;;6.50;99.90;;;;;;4975885;28;113356;-65
2022/01/13 08:54:24;;;;;;;33.30;14.13;;;6.50;99.90;;;;;;4975216;28;112639;-67
2022/01/13 08:56:50;;;;;;;28.45;13.20;;;6.50;99.90;;;;;;4997954;28;113931;-63
2022/01/13 08:59:16;;;;;;;32.95;15.75;;;6.50;99.90;;;;;;4967434;28;114372;-65
2022/01/13 09:01:42;;;;;;;29.13;14.27;;;6.50;99.90;;;;;;4978352;28;112479;-66
2022/01/13 09:04:07;;;;;;;28.38;11.70;;;6.60;99.90;;;;;;4981454;28;113867;-67
2022/01/13 09:06:34;;;;;;;26.13;13.15;;;6.60;99.90;;;;;;4989028;28;113668;-64
2022/01/13 09:09:00;;;;;;;31.23;14.52;;;6.60;99.90;;;;;;4963546;28;115000;-63
2022/01/13 09:11:25;;;;;;;23.58;12.30;;;6.50;99.90;;;;;;4985972;28;112932;-64
2022/01/13 09:13:58;;;;;;;15.48;9.45;;;6.60;99.90;;;;;;4975697;28;112545;-66
2022/01/13 09:16:40;;;;;;;20.50;9.68;;;6.60;99.90;;;;;;4990077;28;113245;-66
2022/01/13 09:19:09;;;;;;;21.73;9.48;;;6.60;99.90;;;;;;4962965;28;115819;-65
2022/01/13 09:21:37;;;;;;;20.27;9.10;;;6.60;99.90;;;;;;4973236;28;112612;-68
2022/01/13 09:24:05;;;;;;;23.02;8.90;;;6.70;99.90;;;;;;4958599;28;112588;-65
2022/01/13 09:26:31;;;;;;;15.80;8.88;;;6.70;99.90;;;;;;4980307;28;115117;-65
2022/01/13 09:28:56;;;;;;;17.23;8.18;;;6.70;99.90;;;;;;4962529;28;112506;-65
2022/01/13 09:31:22;;;;;;;22.48;10.68;;;6.80;99.90;;;;;;4982505;28;112315;-65
2022/01/13 09:33:49;;;;;;;21.95;9.40;;;6.70;99.90;;;;;;4965691;28;112921;-65
2022/01/13 09:36:16;;;;;;;21.70;8.65;;;6.70;99.90;;;;;;4986011;28;114972;-65
2022/01/13 09:38:42;;;;;;;17.60;8.23;;;6.70;99.90;;;;;;4985717;28;112558;-64
2022/01/13 09:41:13;;;;;;;15.75;9.07;;;6.60;99.90;;;;;;4969305;28;112468;-66
2022/01/13 09:43:43;;;;;;;21.50;9.43;;;6.50;99.90;;;;;;4985996;28;112373;-65
2022/01/13 09:46:11;;;;;;;21.40;9.48;;;6.60;99.90;;;;;;4967358;28;115512;-66
2022/01/13 09:48:41;;;;;;;19.13;9.40;;;6.60;99.90;;;;;;4967933;28;113014;-65
2022/01/13 09:51:07;;;;;;;17.48;9.32;;;6.70;99.90;;;;;;4985909;28;113749;-65
2022/01/13 09:53:34;;;;;;;22.85;9.32;;;6.70;99.90;;;;;;4985767;28;113043;-65
2022/01/13 09:56:00;;;;;;;23.67;9.82;;;6.70;99.90;;;;;;4985285;28;114336;-67
2022/01/13 09:58:26;;;;;;;18.05;8.82;;;6.70;99.90;;;;;;4985301;28;112893;-66
2022/01/13 10:00:52;;;;;;;16.55;8.63;;;6.70;99.90;;;;;;4986259;28;112374;-65
2022/01/13 10:03:25;;;;;;;17.63;8.43;;;6.70;99.90;;;;;;4986338;28;112424;-66
2022/01/13 10:05:53;;;;;;;17.98;10.02;;;6.80;99.90;;;;;;4966907;28;113374;-65
2022/01/13 10:08:43;;;;;;;12.80;7.03;;;6.70;99.90;;;;;;4949563;28;115050;-65
2022/01/13 10:11:38;;;;;;;14.93;7.78;;;6.80;99.90;;;;;;4958405;28;112999;-65
2022/01/13 10:14:06;;;;;;;15.60;8.10;;;6.90;99.90;;;;;;4986479;28;112361;-66
2022/01/13 10:16:32;;;;;;;12.77;7.53;;;7.00;99.90;;;;;;4984702;28;113581;-66
2022/01/13 10:18:58;;;;;;;15.07;7.97;;;7.10;99.90;;;;;;4965376;28;113684;-68
2022/01/13 10:21:25;;;;;;;17.08;7.68;;;7.20;99.90;;;;;;4965830;28;113000;-65
2022/01/13 10:24:02;;;;;;;23.33;10.57;;;7.20;99.90;;;;;;4965741;28;112639;-68
2022/01/13 10:26:30;;;;;;;22.88;7.90;;;7.30;99.90;;;;;;4964965;28;114282;-64
2022/01/13 10:28:57;;;;;;;16.42;7.65;;;7.40;99.90;;;;;;4947869;28;112602;-65
2022/01/13 10:31:51;;;;;;;20.05;8.55;;;7.50;99.90;;;;;;4965516;28;112531;-64
2022/01/13 10:34:37;;;;;;;22.08;11.10;;;7.60;99.90;;;;;;4946987;28;112719;-65
2022/01/13 10:37:13;;;;;;;22.27;10.00;;;7.80;99.90;;;;;;4963282;28;114755;-66
2022/01/13 10:40:04;;;;;;;30.02;12.88;;;7.90;99.90;;;;;;4963384;28;114478;-66
2022/01/13 10:45:17;;;;;;;23.23;10.98;;;8.00;99.90;;;;;;4964803;28;112351;-66
2022/01/13 10:47:57;;;;;;;38.75;12.23;;;8.10;99.90;;;;;;4964212;28;113030;-66
2022/01/13 10:50:28;;;;;;;24.50;13.23;;;8.20;99.90;;;;;;4946808;28;112787;-68
2022/01/13 10:52:55;;;;;;;26.13;13.52;;;8.20;99.90;;;;;;4964875;28;112833;-66
2022/01/13 10:55:23;;;;;;;29.92;12.75;;;8.30;99.90;;;;;;4947100;28;112634;-65
2022/01/13 10:57:51;;;;;;;36.28;13.57;;;8.40;99.90;;;;;;4964103;28;113250;-66
2022/01/13 11:00:16;;;;;;;30.02;14.20;;;8.50;99.90;;;;;;4963380;28;112789;-66
2022/01/13 11:03:01;;;;;;;32.10;14.88;;;8.60;99.90;;;;;;4964239;28;112416;-65
2022/01/13 11:05:28;;;;;;;23.58;12.95;;;8.60;99.90;;;;;;4964980;28;112380;-66
2022/01/13 11:07:57;;;;;;;21.20;13.45;;;8.70;99.90;;;;;;4977401;22;113196;-60
2022/01/13 11:10:23;;;;;;;26.50;13.70;;;8.80;99.90;;;;;;4979409;28;113030;-61
2022/01/13 11:12:56;;;;;;;25.73;13.02;;;8.90;99.90;;;;;;4984528;28;112289;-61
2022/01/13 11:15:24;;;;;;;23.08;11.75;;;9.00;99.90;;;;;;4984684;28;112528;-60
2022/01/13 11:17:54;;;;;;;21.42;11.65;;;9.00;99.90;;;;;;4983478;28;116063;-57
2022/01/13 11:20:21;;;;;;;24.48;12.63;;;9.10;99.90;;;;;;4983560;28;113502;-60
2022/01/13 11:22:49;;;;;;;28.10;12.40;;;9.20;99.90;;;;;;4963285;22;113232;-71
2022/01/13 11:25:19;;;;;;;19.30;12.02;;;9.20;99.90;;;;;;4977434;28;113587;-73
2022/01/13 11:27:45;;;;;;;27.23;12.63;;;9.10;99.90;;;;;;4966631;28;113618;-72
2022/01/13 11:30:19;;;;;;;23.20;12.82;;;9.20;99.90;;;;;;4988352;22;113463;-61
2022/01/13 11:32:46;;;;;;;31.58;12.93;;;9.20;99.90;;;;;;4948126;28;112444;-61
2022/01/13 11:35:15;;;;;;;25.88;11.88;;;9.30;99.90;;;;;;4945281;28;112364;-60
2022/01/13 11:37:42;;;;;;;38.95;13.95;;;9.50;99.90;;;;;;4951651;22;113544;-65
2022/01/13 11:40:28;;;;;;;23.02;11.15;;;9.60;99.90;;;;;;4935555;28;113613;-65
2022/01/13 11:42:55;;;;;;;28.25;12.65;;;9.80;99.90;;;;;;4944005;28;112481;-64
2022/01/13 11:45:22;;;;;;;28.58;11.70;;;10.00;99.90;;;;;;4961121;28;112829;-63
2022/01/13 11:48:08;;;;;;;31.17;12.13;;;10.20;99.90;;;;;;4962943;28;112893;-63
2022/01/13 11:50:42;;;;;;;29.83;12.27;;;10.50;99.90;;;;;;4961892;28;113385;-65
2022/01/13 11:53:20;;;;;;;29.60;13.65;;;10.80;99.90;;;;;;4947119;28;112956;-64
2022/01/13 11:55:54;;;;;;;24.40;12.43;;;11.20;99.90;;;;;;4963552;28;112394;-65
2022/01/13 11:58:38;;;;;;;26.02;12.57;;;11.40;99.90;;;;;;4963061;28;114322;-65
2022/01/13 12:01:29;;;;;;;29.60;11.70;;;12.00;99.90;;;;;;4963359;28;112654;-65
2022/01/13 12:04:00;;;;;;;30.48;11.45;;;12.60;99.90;;;;;;4962936;28;112517;-63
2022/01/13 12:06:49;;;;;;;23.67;9.93;;;13.20;99.90;;;;;;4963652;28;112623;-65
2022/01/13 12:09:21;;;;;;;30.20;12.32;;;13.80;99.90;;;;;;4924912;28;113701;-65
2022/01/13 12:11:54;;;;;;;19.92;10.10;;;14.20;99.90;;;;;;4962862;28;113390;-65
2022/01/13 12:14:32;;;;;;;22.67;10.20;;;14.70;99.90;;;;;;4963275;28;112370;-63
2022/01/13 12:17:13;;;;;;;26.98;11.63;;;15.30;99.90;;;;;;4962838;28;112618;-64
2022/01/13 12:19:47;;;;;;;25.10;10.60;;;15.90;99.90;;;;;;4963085;28;113315;-64
2022/01/13 12:22:40;;;;;;;26.30;10.70;;;16.60;99.90;;;;;;4962315;28;113563;-65
2022/01/13 12:25:08;;;;;;;26.67;7.97;;;17.10;99.90;;;;;;4963609;28;112449;-64
2022/01/13 12:27:40;;;;;;;21.60;8.65;;;17.50;99.90;;;;;;4946149;28;112583;-65
2022/01/13 12:30:34;;;;;;;21.38;7.88;;;17.70;99.90;;;;;;4963358;28;113219;-63
2022/01/13 12:33:03;;;;;;;18.85;7.15;;;18.30;99.90;;;;;;4960355;28;114778;-65
2022/01/13 12:35:38;;;;;;;18.60;7.40;;;18.70;97.90;;;;;;4945413;28;112857;-64
2022/01/13 12:38:09;;;;;;;23.48;6.93;;;19.20;97.40;;;;;;4964244;28;112513;-64
2022/01/13 12:40:48;;;;;;;15.30;6.38;;;19.80;96.50;;;;;;4963624;28;113491;-65
2022/01/13 12:46:22;;;;;;;24.48;7.50;;;20.50;91.90;;;;;;4963350;28;112693;-64
2022/01/13 12:48:52;;;;;;;22.27;7.83;;;20.70;92.40;;;;;;4964271;28;112502;-65
2022/01/13 12:51:21;;;;;;;16.50;7.47;;;21.20;91.40;;;;;;4962970;28;112908;-65
2022/01/13 12:53:48;;;;;;;22.57;6.43;;;21.50;88.80;;;;;;4963484;28;112753;-66
2022/01/13 12:56:23;;;;;;;16.55;6.38;;;22.10;86.60;;;;;;4946180;28;112402;-66
2022/01/13 12:58:55;;;;;;;24.33;7.28;;;22.20;82.40;;;;;;4964305;28;112561;-65
2022/01/13 13:01:30;;;;;;;15.63;7.15;;;22.70;81.00;;;;;;4963125;28;114206;-65
2022/01/13 13:04:05;;;;;;;24.25;7.80;;;23.00;78.50;;;;;;4962812;28;112717;-67
2022/01/13 13:06:33;;;;;;;20.73;7.07;;;23.00;77.50;;;;;;4963436;28;112722;-65
2022/01/13 13:09:08;;;;;;;19.55;6.88;;;23.20;75.90;;;;;;4962886;28;112494;-67
2022/01/13 13:11:38;;;;;;;18.15;5.82;;;23.50;76.70;;;;;;4945324;28;114425;-66